createdAt,value
2018-11-06T00:00:58.093Z,9.90
2018-11-06T00:03:31.762Z,9.90
2018-11-06T00:05:59.953Z,9.90
2018-11-06T00:08:28.115Z,9.90
2018-11-06T00:10:56.253Z,9.80
2018-11-06T00:13:24.447Z,9.80
2018-11-06T00:15:52.597Z,9.80
2018-11-06T00:18:20.810Z,9.80
2018-11-06T00:20:48.979Z,9.70
2018-11-06T00:23:17.170Z,9.70
2018-11-06T00:25:45.367Z,9.60
2018-11-06T00:28:13.899Z,9.60
2018-11-06T00:30:42.072Z,9.60
2018-11-06T00:33:10.222Z,9.60
2018-11-06T00:35:38.395Z,9.60
2018-11-06T00:38:06.565Z,9.60
2018-11-06T00:40:34.731Z,9.50
2018-11-06T00:43:02.883Z,9.50
2018-11-06T00:45:31.054Z,9.50
2018-11-06T00:47:59.247Z,9.40
2018-11-06T00:50:27.444Z,9.40
2018-11-06T00:52:55.614Z,9.40
2018-11-06T00:55:23.775Z,9.40
2018-11-06T00:57:51.951Z,9.40
2018-11-06T01:00:20.270Z,9.40
2018-11-06T01:02:48.783Z,9.40
2018-11-06T01:05:17.599Z,9.40
2018-11-06T01:07:47.641Z,9.30
2018-11-06T01:10:15.781Z,9.30
2018-11-06T01:12:43.934Z,9.30
2018-11-06T01:15:13.267Z,9.30
2018-11-06T01:17:42.010Z,9.30
2018-11-06T01:20:13.274Z,9.30
2018-11-06T01:22:41.466Z,9.30
2018-11-06T01:25:10.221Z,9.20
2018-11-06T01:27:38.602Z,9.20
2018-11-06T01:30:15.110Z,9.30
2018-11-06T01:32:44.079Z,9.30
2018-11-06T01:35:13.289Z,9.30
2018-11-06T01:37:42.245Z,9.30
2018-11-06T01:40:12.361Z,9.30
2018-11-06T01:42:40.961Z,9.20
2018-11-06T01:45:11.102Z,9.20
2018-11-06T01:47:39.554Z,9.20
2018-11-06T01:50:09.054Z,9.20
2018-11-06T01:52:37.704Z,9.20
2018-11-06T01:55:06.270Z,9.20
2018-11-06T01:57:34.450Z,9.10
2018-11-06T02:00:02.639Z,9.20
2018-11-06T02:02:31.103Z,9.20
2018-11-06T02:04:59.289Z,9.10
2018-11-06T02:07:27.472Z,9.20
2018-11-06T02:09:55.655Z,9.10
2018-11-06T02:12:23.819Z,9.00
2018-11-06T02:14:51.993Z,9.00
2018-11-06T02:17:20.207Z,9.00
2018-11-06T02:19:48.562Z,9.00
2018-11-06T02:22:16.730Z,9.00
2018-11-06T02:24:44.919Z,8.90
2018-11-06T02:27:13.079Z,9.00
2018-11-06T02:29:41.238Z,8.90
2018-11-06T02:32:09.483Z,8.90
2018-11-06T02:34:37.574Z,8.90
2018-11-06T02:37:05.724Z,8.90
2018-11-06T02:39:33.938Z,8.90
2018-11-06T02:42:02.077Z,8.90
2018-11-06T02:44:30.219Z,8.90
2018-11-06T02:46:59.018Z,8.90
2018-11-06T02:49:27.155Z,8.90
2018-11-06T02:51:55.330Z,8.90
2018-11-06T02:54:23.503Z,8.90
2018-11-06T02:56:51.677Z,8.90
2018-11-06T02:59:19.821Z,8.90
2018-11-06T03:01:47.976Z,8.90
2018-11-06T03:04:16.143Z,8.80
2018-11-06T03:06:44.276Z,8.80
2018-11-06T03:09:12.470Z,8.90
2018-11-06T03:11:40.621Z,8.90
2018-11-06T03:14:08.805Z,8.90
2018-11-06T03:16:36.936Z,8.90
2018-11-06T03:19:05.095Z,9.00
2018-11-06T03:21:33.229Z,9.00
2018-11-06T03:24:01.517Z,9.00
2018-11-06T03:26:29.630Z,9.00
2018-11-06T03:28:57.804Z,9.10
2018-11-06T03:31:25.969Z,9.10
2018-11-06T03:33:54.147Z,9.10
2018-11-06T03:36:22.268Z,9.10
2018-11-06T03:38:50.418Z,9.10
2018-11-06T03:41:18.578Z,9.20
2018-11-06T03:43:46.718Z,9.20
2018-11-06T03:46:14.948Z,9.20
2018-11-06T03:48:43.386Z,9.20
2018-11-06T03:51:11.506Z,9.20
2018-11-06T03:53:39.614Z,9.20
2018-11-06T03:56:08.468Z,9.20
2018-11-06T03:58:36.592Z,9.30
2018-11-06T04:01:05.005Z,9.30
2018-11-06T04:03:33.147Z,9.30
2018-11-06T04:06:01.272Z,9.30
2018-11-06T04:08:29.445Z,9.30
2018-11-06T04:10:57.591Z,9.30
2018-11-06T04:13:25.713Z,9.30
2018-11-06T04:15:53.855Z,9.40
2018-11-06T04:18:21.998Z,9.30
2018-11-06T04:20:50.137Z,9.30
2018-11-06T04:23:18.253Z,9.30
2018-11-06T04:25:46.390Z,9.30
2018-11-06T04:28:14.517Z,9.30
2018-11-06T04:30:42.633Z,9.30
2018-11-06T04:33:11.021Z,9.40
2018-11-06T04:35:39.113Z,9.40
2018-11-06T04:38:07.209Z,9.40
2018-11-06T04:40:35.388Z,9.40
2018-11-06T04:43:03.471Z,9.50
2018-11-06T04:45:31.578Z,9.50
2018-11-06T04:47:59.693Z,9.50
2018-11-06T04:50:27.839Z,9.50
2018-11-06T04:52:56.050Z,9.40
2018-11-06T04:55:24.153Z,9.40
2018-11-06T04:57:52.258Z,9.50
2018-11-06T05:00:20.385Z,9.40
2018-11-06T05:02:48.546Z,9.50
2018-11-06T05:05:16.917Z,9.50
2018-11-06T05:07:45.014Z,9.50
2018-11-06T05:10:14.367Z,9.50
2018-11-06T05:12:42.546Z,9.60
2018-11-06T05:15:12.361Z,9.60
2018-11-06T05:17:40.821Z,9.60
2018-11-06T05:20:11.260Z,9.60
2018-11-06T05:22:39.388Z,9.60
2018-11-06T05:25:08.157Z,9.60
2018-11-06T05:27:36.537Z,9.60
2018-11-06T05:30:05.271Z,9.70
2018-11-06T05:32:33.377Z,9.70
2018-11-06T05:35:01.578Z,9.70
2018-11-06T05:37:29.886Z,9.70
2018-11-06T05:40:09.501Z,9.70
2018-11-06T05:42:37.650Z,9.60
2018-11-06T05:45:05.978Z,9.60
2018-11-06T05:47:34.145Z,9.50
2018-11-06T05:50:02.634Z,9.50
2018-11-06T05:52:30.727Z,9.50
2018-11-06T05:54:58.865Z,9.50
2018-11-06T05:57:27.050Z,9.50
2018-11-06T05:59:55.170Z,9.50
2018-11-06T06:02:23.287Z,9.50
2018-11-06T06:04:51.413Z,9.40
2018-11-06T06:07:19.513Z,9.40
2018-11-06T06:09:47.608Z,9.40
2018-11-06T06:12:15.738Z,9.40
2018-11-06T06:14:43.874Z,9.50
2018-11-06T06:17:12.042Z,9.50
2018-11-06T06:19:40.102Z,9.50
2018-11-06T06:22:08.245Z,9.50
2018-11-06T06:24:36.649Z,9.50
2018-11-06T06:27:04.978Z,9.40
2018-11-06T06:29:33.081Z,9.50
2018-11-06T06:32:01.238Z,9.50
2018-11-06T06:34:29.389Z,9.50
2018-11-06T06:36:57.680Z,9.50
2018-11-06T06:39:25.781Z,9.50
2018-11-06T06:41:53.901Z,9.50
2018-11-06T06:44:22.038Z,9.50
2018-11-06T06:46:50.121Z,9.50
2018-11-06T06:49:18.272Z,9.40
2018-11-06T06:51:46.430Z,9.40
2018-11-06T06:54:14.644Z,9.50
2018-11-06T06:56:42.670Z,9.40
2018-11-06T06:59:10.872Z,9.50
2018-11-06T07:01:39.062Z,9.40
2018-11-06T07:04:07.200Z,9.40
2018-11-06T07:06:35.293Z,9.50
2018-11-06T07:09:04.553Z,9.50
2018-11-06T07:11:32.701Z,9.60
2018-11-06T07:14:00.824Z,9.70
2018-11-06T07:16:28.949Z,9.70
2018-11-06T07:18:57.070Z,9.80
2018-11-06T07:21:25.234Z,9.80
2018-11-06T07:23:53.365Z,9.70
2018-11-06T07:26:21.530Z,9.70
2018-11-06T07:28:49.723Z,9.80
2018-11-06T07:31:17.782Z,9.90
2018-11-06T07:33:45.887Z,9.90
2018-11-06T07:36:14.006Z,10.00
2018-11-06T07:38:42.142Z,10.10
2018-11-06T07:41:10.393Z,10.20
2018-11-06T07:43:38.422Z,10.20
2018-11-06T07:46:06.546Z,10.30
2018-11-06T07:48:34.654Z,10.40
2018-11-06T07:51:02.766Z,10.40
2018-11-06T07:53:30.925Z,10.50
2018-11-06T07:55:59.030Z,10.50
2018-11-06T07:58:27.174Z,10.50
2018-11-06T08:00:55.321Z,10.60
2018-11-06T08:03:23.422Z,10.60
2018-11-06T08:05:51.545Z,10.70
2018-11-06T08:08:19.653Z,10.70
2018-11-06T08:10:47.766Z,10.70
2018-11-06T08:13:15.936Z,10.80
2018-11-06T08:15:44.095Z,10.80
2018-11-06T08:18:12.267Z,10.80
2018-11-06T08:20:40.445Z,10.90
2018-11-06T08:23:08.515Z,10.90
2018-11-06T08:25:36.676Z,10.90
2018-11-06T08:28:05.222Z,10.90
2018-11-06T08:30:33.443Z,10.90
2018-11-06T08:33:01.447Z,10.90
2018-11-06T08:35:29.701Z,10.80
2018-11-06T08:37:57.845Z,10.80
2018-11-06T08:40:25.950Z,10.80
2018-11-06T08:42:54.077Z,10.80
2018-11-06T08:45:22.231Z,10.80
2018-11-06T08:47:50.347Z,10.70
2018-11-06T08:50:19.226Z,10.80
2018-11-06T08:52:47.367Z,10.80
2018-11-06T08:55:16.179Z,10.80
2018-11-06T08:57:44.822Z,10.90
2018-11-06T09:00:14.923Z,10.90
2018-11-06T09:02:44.273Z,11.00
2018-11-06T09:05:13.685Z,11.00
2018-11-06T09:07:41.783Z,11.10
2018-11-06T09:10:11.190Z,11.20
2018-11-06T09:12:39.743Z,11.20
2018-11-06T09:15:09.449Z,11.30
2018-11-06T09:17:38.161Z,11.30
2018-11-06T09:20:08.101Z,11.40
2018-11-06T09:22:36.442Z,11.40
2018-11-06T09:25:06.062Z,11.50
2018-11-06T09:27:34.165Z,11.60
2018-11-06T09:30:02.670Z,11.70
2018-11-06T09:32:30.776Z,11.80
2018-11-06T09:34:58.931Z,11.90
2018-11-06T09:37:27.028Z,12.00
2018-11-06T09:39:55.143Z,12.10
2018-11-06T09:42:23.269Z,12.20
2018-11-06T09:44:51.711Z,12.30
2018-11-06T09:47:19.819Z,12.40
2018-11-06T09:49:47.945Z,12.50
2018-11-06T09:52:16.430Z,12.60
2018-11-06T09:54:44.528Z,12.80
2018-11-06T09:57:12.635Z,12.90
2018-11-06T09:59:40.786Z,13.00
2018-11-06T10:02:09.198Z,13.10
2018-11-06T10:04:37.318Z,13.00
2018-11-06T10:07:06.229Z,13.00
2018-11-06T10:09:34.077Z,13.00
2018-11-06T10:12:02.200Z,13.00
2018-11-06T10:14:30.326Z,13.00
2018-11-06T10:16:58.454Z,12.90
2018-11-06T10:19:26.571Z,12.90
2018-11-06T10:21:54.683Z,13.00
2018-11-06T10:24:22.853Z,13.10
2018-11-06T10:26:51.065Z,13.20
2018-11-06T10:29:19.170Z,13.30
2018-11-06T10:31:47.309Z,13.40
2018-11-06T10:34:15.416Z,13.40
2018-11-06T10:36:43.521Z,13.50
2018-11-06T10:39:13.465Z,13.50
2018-11-06T10:41:41.575Z,13.60
2018-11-06T10:44:09.673Z,13.70
2018-11-06T10:46:38.170Z,13.80
2018-11-06T10:49:07.018Z,13.90
2018-11-06T10:51:35.179Z,14.00
2018-11-06T10:54:03.309Z,14.10
2018-11-06T10:56:31.546Z,14.00
2018-11-06T10:58:59.637Z,14.00
2018-11-06T11:01:33.312Z,14.00
2018-11-06T11:04:06.945Z,14.10
2018-11-06T11:06:35.118Z,14.10
2018-11-06T11:09:03.229Z,14.30
2018-11-06T11:11:31.385Z,14.40
2018-11-06T11:13:59.537Z,14.60
2018-11-06T11:16:27.666Z,14.80
2018-11-06T11:18:55.791Z,15.10
2018-11-06T11:21:24.756Z,15.40
2018-11-06T11:23:53.118Z,15.60
2018-11-06T11:26:21.229Z,15.90
2018-11-06T11:28:49.357Z,16.10
2018-11-06T11:31:17.595Z,16.40
2018-11-06T11:33:45.619Z,16.40
2018-11-06T11:36:13.730Z,16.50
2018-11-06T11:38:41.881Z,16.60
2018-11-06T11:41:10.114Z,16.70
2018-11-06T11:43:38.241Z,16.70
2018-11-06T11:46:06.385Z,16.70
2018-11-06T11:48:34.513Z,16.80
2018-11-06T11:51:02.644Z,16.90
2018-11-06T11:53:30.854Z,17.00
2018-11-06T11:55:58.970Z,17.10
2018-11-06T11:58:27.116Z,17.30
2018-11-06T12:00:55.213Z,17.40
2018-11-06T12:03:23.365Z,17.50
2018-11-06T12:05:51.493Z,17.60
2018-11-06T12:08:19.590Z,17.70
2018-11-06T12:10:47.741Z,17.90
2018-11-06T12:13:15.834Z,18.20
2018-11-06T12:15:43.949Z,18.30
2018-11-06T12:18:12.124Z,18.40
2018-11-06T12:20:40.561Z,18.40
2018-11-06T12:23:08.685Z,18.30
2018-11-06T12:25:37.028Z,18.30
2018-11-06T12:28:05.189Z,18.30
2018-11-06T12:30:33.352Z,18.40
2018-11-06T12:33:01.462Z,18.50
2018-11-06T12:35:29.592Z,18.70
2018-11-06T12:37:57.725Z,18.90
2018-11-06T12:40:25.868Z,19.00
2018-11-06T12:42:54.001Z,19.10
2018-11-06T12:45:22.097Z,19.20
2018-11-06T12:47:50.231Z,19.30
2018-11-06T12:50:18.642Z,19.30
2018-11-06T12:52:46.722Z,19.50
2018-11-06T12:55:15.740Z,19.70
2018-11-06T12:57:43.919Z,19.80
2018-11-06T13:00:15.005Z,19.90
2018-11-06T13:02:43.146Z,20.00
2018-11-06T13:05:11.281Z,19.90
2018-11-06T13:07:40.617Z,19.70
2018-11-06T13:10:09.522Z,19.60
2018-11-06T13:12:37.746Z,19.50
2018-11-06T13:15:06.370Z,19.60
2018-11-06T13:17:34.930Z,19.70
2018-11-06T13:20:03.052Z,19.80
2018-11-06T13:22:31.213Z,19.90
2018-11-06T13:24:59.323Z,20.00
2018-11-06T13:27:27.445Z,20.00
2018-11-06T13:29:55.589Z,20.00
2018-11-06T13:32:23.732Z,19.80
2018-11-06T13:34:51.837Z,19.50
2018-11-06T13:37:19.977Z,19.20
2018-11-06T13:39:48.132Z,19.00
2018-11-06T13:42:16.299Z,18.90
2018-11-06T13:44:44.726Z,18.80
2018-11-06T13:47:12.478Z,18.60
2018-11-06T13:49:40.589Z,18.40
2018-11-06T13:52:08.815Z,18.10
2018-11-06T13:54:36.829Z,17.90
2018-11-06T13:57:05.370Z,17.80
2018-11-06T13:59:33.479Z,17.60
2018-11-06T14:02:01.705Z,17.50
2018-11-06T14:04:30.202Z,17.40
2018-11-06T14:06:58.397Z,17.40
2018-11-06T14:09:26.515Z,17.30
2018-11-06T14:11:54.637Z,17.20
2018-11-06T14:14:22.769Z,17.20
2018-11-06T14:16:50.925Z,17.30
2018-11-06T14:19:19.046Z,17.20
2018-11-06T14:21:47.182Z,17.20
2018-11-06T14:24:15.350Z,17.20
2018-11-06T14:26:43.473Z,17.20
2018-11-06T14:29:11.643Z,17.20
2018-11-06T14:31:39.726Z,17.10
2018-11-06T14:34:07.865Z,17.10
2018-11-06T14:36:35.978Z,17.00
2018-11-06T14:39:05.464Z,16.90
2018-11-06T14:41:33.587Z,16.90
2018-11-06T14:44:01.726Z,16.80
2018-11-06T14:46:30.049Z,16.70
2018-11-06T14:48:58.291Z,16.60
2018-11-06T14:51:26.395Z,16.50
2018-11-06T14:53:54.496Z,16.40
2018-11-06T14:56:22.593Z,16.30
2018-11-06T14:58:50.830Z,16.20
2018-11-06T15:01:18.925Z,16.10
2018-11-06T15:03:47.017Z,16.00
2018-11-06T15:06:15.142Z,15.90
2018-11-06T15:08:43.301Z,15.80
2018-11-06T15:11:11.450Z,15.70
2018-11-06T15:13:39.659Z,15.60
2018-11-06T15:16:09.122Z,15.50
2018-11-06T15:18:37.225Z,15.50
2018-11-06T15:21:05.699Z,15.40
2018-11-06T15:23:34.072Z,15.40
2018-11-06T15:26:02.254Z,15.30
2018-11-06T15:28:30.382Z,15.10
2018-11-06T15:30:58.537Z,15.10
2018-11-06T15:33:26.824Z,15.00
2018-11-06T15:35:54.913Z,15.00
2018-11-06T15:38:23.036Z,15.00
2018-11-06T15:40:53.243Z,14.90
2018-11-06T15:43:21.303Z,14.80
2018-11-06T15:45:49.456Z,14.70
2018-11-06T15:48:17.587Z,14.70
2018-11-06T15:50:45.730Z,14.60
2018-11-06T15:53:13.909Z,14.50
2018-11-06T15:55:42.050Z,14.40
2018-11-06T15:58:10.149Z,14.40
2018-11-06T16:00:38.352Z,14.30
2018-11-06T16:03:06.458Z,14.30
2018-11-06T16:05:34.541Z,14.20
2018-11-06T16:08:02.702Z,14.20
2018-11-06T16:10:30.778Z,14.20
2018-11-06T16:12:58.897Z,14.20
2018-11-06T16:15:27.096Z,14.10
2018-11-06T16:17:55.269Z,14.10
2018-11-06T16:20:23.507Z,14.10
2018-11-06T16:22:51.693Z,14.10
2018-11-06T16:25:20.394Z,14.10
2018-11-06T16:27:48.861Z,14.10
2018-11-06T16:30:18.224Z,14.10
2018-11-06T16:32:46.451Z,14.10
2018-11-06T16:35:16.826Z,14.10
2018-11-06T16:37:45.389Z,14.00
2018-11-06T16:40:14.110Z,14.00
2018-11-06T16:42:43.179Z,14.00
2018-11-06T16:45:13.733Z,13.90
2018-11-06T16:47:42.533Z,13.90
2018-11-06T16:50:11.969Z,13.90
2018-11-06T16:52:40.273Z,13.90
2018-11-06T16:55:08.844Z,13.90
2018-11-06T16:57:37.437Z,13.80
2018-11-06T17:00:07.417Z,13.80
2018-11-06T17:02:35.558Z,13.80
2018-11-06T17:05:03.866Z,13.80
2018-11-06T17:07:31.962Z,13.70
2018-11-06T17:10:00.087Z,13.80
2018-11-06T17:12:28.281Z,13.80
2018-11-06T17:14:56.382Z,13.80
2018-11-06T17:17:24.571Z,13.70
2018-11-06T17:19:52.634Z,13.70
2018-11-06T17:22:20.779Z,13.70
2018-11-06T17:24:48.963Z,13.70
2018-11-06T17:27:17.013Z,13.70
2018-11-06T17:29:45.156Z,13.70
2018-11-06T17:32:13.278Z,13.70
2018-11-06T17:34:41.408Z,13.70
2018-11-06T17:37:09.614Z,13.60
2018-11-06T17:39:37.910Z,13.60
2018-11-06T17:42:05.935Z,13.50
2018-11-06T17:44:34.057Z,13.50
2018-11-06T17:47:02.203Z,13.40
2018-11-06T17:49:30.450Z,13.40
2018-11-06T17:51:58.553Z,13.30
2018-11-06T17:54:26.637Z,13.30
2018-11-06T17:56:54.810Z,13.20
2018-11-06T17:59:22.941Z,13.20
2018-11-06T18:01:52.156Z,13.20
2018-11-06T18:04:20.386Z,13.10
2018-11-06T18:06:48.435Z,13.00
2018-11-06T18:09:16.529Z,13.00
2018-11-06T18:11:44.702Z,12.90
2018-11-06T18:14:12.841Z,12.90
2018-11-06T18:16:41.005Z,12.90
2018-11-06T18:19:09.101Z,12.90
2018-11-06T18:21:37.550Z,12.90
2018-11-06T18:24:06.058Z,12.90
2018-11-06T18:26:34.219Z,12.90
2018-11-06T18:29:02.378Z,12.90
2018-11-06T18:31:30.548Z,12.90
2018-11-06T18:33:58.650Z,12.80
2018-11-06T18:36:26.766Z,12.80
2018-11-06T18:38:54.942Z,12.70
2018-11-06T18:41:23.093Z,12.70
2018-11-06T18:43:51.209Z,12.70
2018-11-06T18:46:19.417Z,12.70
2018-11-06T18:48:47.547Z,12.60
2018-11-06T18:51:15.776Z,12.60
2018-11-06T18:53:43.929Z,12.70
2018-11-06T18:56:12.123Z,12.70
2018-11-06T18:58:40.567Z,12.70
2018-11-06T19:01:08.689Z,12.70
2018-11-06T19:03:36.799Z,12.80
2018-11-06T19:06:05.274Z,12.80
2018-11-06T19:08:33.401Z,12.90
2018-11-06T19:11:01.542Z,12.90
2018-11-06T19:13:29.658Z,12.90
2018-11-06T19:15:57.793Z,12.90
2018-11-06T19:18:25.915Z,12.90
2018-11-06T19:20:54.110Z,12.90
2018-11-06T19:23:22.316Z,12.90
2018-11-06T19:25:50.776Z,12.90
2018-11-06T19:28:18.951Z,12.90
2018-11-06T19:30:47.125Z,12.80
2018-11-06T19:33:15.259Z,12.80
2018-11-06T19:35:43.453Z,12.80
2018-11-06T19:38:12.349Z,12.80
2018-11-06T19:40:40.550Z,12.70
2018-11-06T19:43:08.740Z,12.70
2018-11-06T19:45:36.881Z,12.70
2018-11-06T19:48:05.560Z,12.70
2018-11-06T19:50:33.721Z,12.70
2018-11-06T19:53:01.925Z,12.70
2018-11-06T19:55:30.105Z,12.70
2018-11-06T19:57:58.227Z,12.70
2018-11-06T20:00:26.415Z,12.70
2018-11-06T20:02:54.854Z,12.70
2018-11-06T20:05:23.193Z,12.60
2018-11-06T20:07:51.911Z,12.60
2018-11-06T20:10:21.342Z,12.60
2018-11-06T20:12:50.569Z,12.60
2018-11-06T20:15:18.717Z,12.50
2018-11-06T20:17:47.119Z,12.50
2018-11-06T20:20:18.179Z,12.50
2018-11-06T20:22:46.490Z,12.50
2018-11-06T20:25:14.618Z,12.50
2018-11-06T20:27:43.426Z,12.40
2018-11-06T20:30:14.037Z,12.40
2018-11-06T20:32:42.341Z,12.40
2018-11-06T20:35:11.497Z,12.40
2018-11-06T20:37:39.721Z,12.40
2018-11-06T20:40:10.072Z,12.40
2018-11-06T20:42:38.563Z,12.40
2018-11-06T20:45:08.569Z,12.40
2018-11-06T20:47:36.762Z,12.40
2018-11-06T20:50:07.394Z,12.40
2018-11-06T20:52:35.486Z,12.40
2018-11-06T20:55:03.779Z,12.40
2018-11-06T20:57:31.900Z,12.40
2018-11-06T21:00:00.210Z,12.40
2018-11-06T21:02:28.178Z,12.40
2018-11-06T21:04:56.341Z,12.40
2018-11-06T21:07:25.153Z,12.40
2018-11-06T21:09:53.278Z,12.40
2018-11-06T21:12:21.426Z,12.40
2018-11-06T21:14:49.546Z,12.40
2018-11-06T21:17:17.697Z,12.40
2018-11-06T21:19:45.843Z,12.40
2018-11-06T21:22:13.936Z,12.40
2018-11-06T21:24:42.085Z,12.40
2018-11-06T21:27:10.281Z,12.40
2018-11-06T21:29:38.361Z,12.40
2018-11-06T21:32:06.519Z,12.40
2018-11-06T21:34:34.954Z,12.40
2018-11-06T21:37:03.067Z,12.40
2018-11-06T21:39:31.180Z,12.40
2018-11-06T21:41:59.461Z,12.40
2018-11-06T21:44:27.590Z,12.40
2018-11-06T21:46:55.721Z,12.40
2018-11-06T21:49:24.126Z,12.40
2018-11-06T21:51:52.246Z,12.40
2018-11-06T21:54:20.384Z,12.40
2018-11-06T21:56:48.613Z,12.40
2018-11-06T21:59:16.758Z,12.40
2018-11-06T22:01:44.982Z,12.40
2018-11-06T22:04:13.150Z,12.40
2018-11-06T22:06:41.322Z,12.40
2018-11-06T22:09:09.834Z,12.40
2018-11-06T22:11:38.043Z,12.40
2018-11-06T22:14:06.663Z,12.40
2018-11-06T22:16:34.763Z,12.50
2018-11-06T22:19:02.898Z,12.50
2018-11-06T22:21:31.387Z,12.50
2018-11-06T22:23:59.754Z,12.50
2018-11-06T22:26:27.886Z,12.50
2018-11-06T22:28:56.259Z,12.50
2018-11-06T22:31:24.421Z,12.50
2018-11-06T22:33:52.504Z,12.50
2018-11-06T22:36:20.669Z,12.50
2018-11-06T22:38:48.938Z,12.50
2018-11-06T22:41:17.041Z,12.50
2018-11-06T22:43:45.183Z,12.50
2018-11-06T22:46:13.261Z,12.40
2018-11-06T22:48:41.396Z,12.40
2018-11-06T22:51:09.520Z,12.30
2018-11-06T22:53:37.618Z,12.30
2018-11-06T22:56:05.718Z,12.30
2018-11-06T22:58:33.882Z,12.30
2018-11-06T23:01:07.494Z,12.40
2018-11-06T23:03:35.649Z,12.40
2018-11-06T23:06:04.160Z,12.30
2018-11-06T23:08:32.239Z,12.30
2018-11-06T23:11:00.347Z,12.30
2018-11-06T23:13:28.473Z,12.30
2018-11-06T23:15:56.601Z,12.20
2018-11-06T23:18:24.725Z,12.20
2018-11-06T23:20:52.891Z,12.20
2018-11-06T23:23:20.991Z,12.10
2018-11-06T23:25:49.113Z,12.10
2018-11-06T23:28:17.289Z,12.10
2018-11-06T23:30:45.422Z,12.00
2018-11-06T23:33:13.545Z,12.00
2018-11-06T23:35:41.682Z,12.00
2018-11-06T23:38:09.766Z,12.10
2018-11-06T23:40:37.891Z,12.10
2018-11-06T23:43:06.034Z,12.10
2018-11-06T23:45:34.137Z,12.10
2018-11-06T23:48:02.666Z,12.20
2018-11-06T23:50:30.773Z,12.30
2018-11-06T23:52:58.890Z,12.30
2018-11-06T23:55:27.013Z,12.30
2018-11-06T23:57:55.162Z,12.30
